AIRPORT MAP

 RUNWAY INFORMATION

Runway 07 Runway length 6003 ft Runway width 150 ft
Runway elevation 105 ft Runway displaced threshold 300 ft Runway heading 67
Runway 25 Runway length 6003 ft Runway width 150 ft
Runway elevation 110 ft Runway displaced threshold 0 ft Runway heading 247
Runway 13 Runway length 4638 ft Runway width 100 ft
Runway elevation 104 ft Runway displaced threshold 0 ft Runway heading 131
Runway 31 Runway length 4638 ft Runway width 100 ft
Runway elevation 109 ft Runway displaced threshold 0 ft Runway heading 311

 AIRPORT FREQUENCIES

Type A/D Name ORLANDO AP Frequency 119.4 MHZ
Type ATIS Name ATIS Frequency 127.25 MHZ
Type CLD Name CLNC DEL Frequency 128.45 MHZ
Type CTAF Name CTAF Frequency 118.7 MHZ
Type GND Name GND Frequency 121.4 MHZ
Type RDO Name ST PETERSB Frequency 122.1 MHZ
Type RDO Name ST PETERSB Frequency 122.2 MHZ
Type TWR Name TWR Frequency 118.7 MHZ
Type UNIC Name UNICOM Frequency 122.95 MHZ

 AIRPORT NEAR NAVIGATION AIDS


 METAR AND TAF INFORMATION

METAR FOR KORL
ADDS - METARS form results

(2317 UTC 06 July 2020)
Data provider http://aviationweather.gov/metar/data/
 
METAR text: KORL 062253Z AUTO 12007KT 4SM RA BR FEW009 SCT090 OVC110 24/22 A3007 RMK AO2 SLP186 P0006 T02390217
Conditions at: KORL (ORLANDO , FL, US) observed 2253 UTC 06 July 2020
Temperature: 23.9°C (75°F)
Dewpoint: 21.7°C (71°F) [RH = 88%]
Pressure (altimeter): 30.07 inches Hg (1018.4 mb)
[Sea-level pressure: 1018.6 mb]
Winds: from the ESE (120 degrees) at 8 MPH (7 knots; 3.6 m/s)
Visibility: 4 miles ( 6 km)
Ceiling: 11000 feet AGL
Clouds: few clouds at 900 feet AGL
scattered clouds at 9000 feet AGL
overcast cloud deck at 11000 feet AGL
Weather: RA BR  (moderate rain, mist)

METAR text: KORL 062239Z AUTO 12009KT 6SM -RA BR FEW009 SCT060 BKN095 24/22 A3008 RMK AO2 LTG DSNT NW P0003 T02390222
Conditions at: KORL (ORLANDO , FL, US) observed 2239 UTC 06 July 2020
Temperature: 23.9°C (75°F)
Dewpoint: 22.2°C (72°F) [RH = 90%]
Pressure (altimeter): 30.08 inches Hg (1018.7 mb)
Winds: from the ESE (120 degrees) at 10 MPH (9 knots; 4.6 m/s)
Visibility: 6 miles (10 km)
Ceiling: 9500 feet AGL
Clouds: few clouds at 900 feet AGL
scattered clouds at 6000 feet AGL
broken clouds at 9500 feet AGL
Weather: -RA BR  (light rain, mist)

METAR text: KORL 062224Z AUTO 11008KT 5SM VCTS -RA BR SCT008 BKN042 OVC085 24/22 A3009 RMK AO2 LTG DSNT ALQDS P0001 T02390222
Conditions at: KORL (ORLANDO , FL, US) observed 2224 UTC 06 July 2020
Temperature: 23.9°C (75°F)
Dewpoint: 22.2°C (72°F) [RH = 90%]
Pressure (altimeter): 30.09 inches Hg (1019.0 mb)
Winds: from the ESE (110 degrees) at 9 MPH (8 knots; 4.1 m/s)
Visibility: 5 miles ( 8 km)
Ceiling: 4200 feet AGL
Clouds: scattered clouds at 800 feet AGL
broken clouds at 4200 feet AGL
overcast cloud deck at 8500 feet AGL
Weather: VCTS -RA BR  (thunderstorm in vicinity, light rain, mist)